sensor_id;sensor_type;location;lat;lon;timestamp;pressure;altitude;pressure_sealevel;temperature;humidity
28310;BME280;15571;50.974;13.936;2023-07-31T00:02:49;99871.53;;;16.63;100.00
28310;BME280;15571;50.974;13.936;2023-07-31T00:05:51;99873.91;;;16.46;100.00
28310;BME280;15571;50.974;13.936;2023-07-31T00:08:53;99872.31;;;16.42;100.00
28310;BME280;15571;50.974;13.936;2023-07-31T00:11:55;99872.72;;;16.29;100.00
28310;BME280;15571;50.974;13.936;2023-07-31T00:14:58;99877.41;;;16.46;100.00
28310;BME280;15571;50.974;13.936;2023-07-31T00:18:00;99875.53;;;16.25;100.00
28310;BME280;15571;50.974;13.936;2023-07-31T00:21:02;99877.31;;;16.24;100.00
28310;BME280;15571;50.974;13.936;2023-07-31T00:24:04;99879.50;;;16.37;100.00
28310;BME280;15571;50.974;13.936;2023-07-31T00:27:06;99876.81;;;16.13;100.00
28310;BME280;15571;50.974;13.936;2023-07-31T00:30:10;99874.34;;;16.08;100.00
28310;BME280;15571;50.974;13.936;2023-07-31T00:33:12;99869.41;;;16.49;100.00
28310;BME280;15571;50.974;13.936;2023-07-31T00:36:14;99868.41;;;16.27;100.00
28310;BME280;15571;50.974;13.936;2023-07-31T00:39:17;99862.56;;;16.17;100.00
28310;BME280;15571;50.974;13.936;2023-07-31T00:42:19;99860.22;;;16.09;100.00
28310;BME280;15571;50.974;13.936;2023-07-31T00:45:24;99866.25;;;16.13;100.00
28310;BME280;15571;50.974;13.936;2023-07-31T00:48:30;99851.47;;;16.07;100.00
28310;BME280;15571;50.974;13.936;2023-07-31T00:51:35;99851.94;;;15.93;100.00
28310;BME280;15571;50.974;13.936;2023-07-31T00:54:38;99849.53;;;15.87;100.00
28310;BME280;15571;50.974;13.936;2023-07-31T00:57:40;99855.44;;;15.94;100.00
28310;BME280;15571;50.974;13.936;2023-07-31T01:00:44;99852.97;;;15.89;100.00
28310;BME280;15571;50.974;13.936;2023-07-31T01:03:53;99848.25;;;15.99;100.00
28310;BME280;15571;50.974;13.936;2023-07-31T01:07:17;99844.03;;;15.93;100.00
28310;BME280;15571;50.974;13.936;2023-07-31T01:10:23;99837.31;;;15.83;100.00
28310;BME280;15571;50.974;13.936;2023-07-31T01:13:26;99839.13;;;15.81;100.00
28310;BME280;15571;50.974;13.936;2023-07-31T01:16:29;99830.13;;;15.88;100.00
28310;BME280;15571;50.974;13.936;2023-07-31T01:19:34;99828.94;;;15.97;100.00
28310;BME280;15571;50.974;13.936;2023-07-31T01:22:49;99824.09;;;16.10;100.00
28310;BME280;15571;50.974;13.936;2023-07-31T01:25:59;99832.75;;;15.88;100.00
28310;BME280;15571;50.974;13.936;2023-07-31T01:29:03;99829.38;;;15.83;100.00
28310;BME280;15571;50.974;13.936;2023-07-31T01:32:09;99814.72;;;16.26;100.00
28310;BME280;15571;50.974;13.936;2023-07-31T01:35:12;99824.66;;;16.20;100.00
28310;BME280;15571;50.974;13.936;2023-07-31T01:38:14;99803.63;;;16.42;100.00
28310;BME280;15571;50.974;13.936;2023-07-31T01:41:18;99812.38;;;16.18;100.00
28310;BME280;15571;50.974;13.936;2023-07-31T01:44:20;99818.41;;;15.97;100.00
28310;BME280;15571;50.974;13.936;2023-07-31T01:47:22;99815.00;;;15.93;100.00
28310;BME280;15571;50.974;13.936;2023-07-31T01:50:26;99820.56;;;16.11;100.00
28310;BME280;15571;50.974;13.936;2023-07-31T01:53:28;99819.47;;;15.91;100.00
28310;BME280;15571;50.974;13.936;2023-07-31T01:56:31;99821.09;;;15.95;100.00
28310;BME280;15571;50.974;13.936;2023-07-31T01:59:33;99808.59;;;16.26;100.00
28310;BME280;15571;50.974;13.936;2023-07-31T02:02:35;99814.59;;;16.06;100.00
28310;BME280;15571;50.974;13.936;2023-07-31T02:05:37;99811.72;;;16.12;100.00
28310;BME280;15571;50.974;13.936;2023-07-31T02:08:45;99797.28;;;16.22;100.00
28310;BME280;15571;50.974;13.936;2023-07-31T02:11:48;99797.03;;;16.28;100.00
28310;BME280;15571;50.974;13.936;2023-07-31T02:14:50;99800.56;;;16.29;100.00
28310;BME280;15571;50.974;13.936;2023-07-31T02:17:52;99808.91;;;16.16;100.00
28310;BME280;15571;50.974;13.936;2023-07-31T02:20:54;99807.19;;;16.15;100.00
28310;BME280;15571;50.974;13.936;2023-07-31T02:23:56;99803.63;;;16.16;100.00
28310;BME280;15571;50.974;13.936;2023-07-31T02:26:59;99810.47;;;16.22;100.00
28310;BME280;15571;50.974;13.936;2023-07-31T02:30:01;99808.00;;;16.17;100.00
28310;BME280;15571;50.974;13.936;2023-07-31T02:33:03;99818.34;;;16.24;100.00
28310;BME280;15571;50.974;13.936;2023-07-31T02:36:05;99808.75;;;16.21;100.00
28310;BME280;15571;50.974;13.936;2023-07-31T02:39:06;99797.59;;;16.13;100.00
28310;BME280;15571;50.974;13.936;2023-07-31T02:42:10;99795.78;;;16.15;100.00
28310;BME280;15571;50.974;13.936;2023-07-31T02:45:12;99798.13;;;15.97;100.00
28310;BME280;15571;50.974;13.936;2023-07-31T02:48:13;99799.75;;;16.01;100.00
28310;BME280;15571;50.974;13.936;2023-07-31T02:51:15;99799.44;;;16.11;100.00
28310;BME280;15571;50.974;13.936;2023-07-31T02:54:17;99798.69;;;16.07;100.00
28310;BME280;15571;50.974;13.936;2023-07-31T02:57:22;99790.03;;;16.27;100.00
28310;BME280;15571;50.974;13.936;2023-07-31T03:00:24;99786.47;;;16.28;100.00
28310;BME280;15571;50.974;13.936;2023-07-31T03:03:26;99780.84;;;16.14;100.00
28310;BME280;15571;50.974;13.936;2023-07-31T03:06:28;99791.03;;;15.99;100.00
28310;BME280;15571;50.974;13.936;2023-07-31T03:09:30;99781.19;;;16.28;100.00
28310;BME280;15571;50.974;13.936;2023-07-31T03:12:33;99782.72;;;16.36;100.00
28310;BME280;15571;50.974;13.936;2023-07-31T03:15:35;99783.84;;;16.28;100.00
28310;BME280;15571;50.974;13.936;2023-07-31T03:18:40;99784.88;;;16.48;100.00
28310;BME280;15571;50.974;13.936;2023-07-31T03:21:42;99789.28;;;16.24;100.00
28310;BME280;15571;50.974;13.936;2023-07-31T03:24:49;99793.66;;;16.25;100.00
28310;BME280;15571;50.974;13.936;2023-07-31T03:27:54;99786.38;;;16.31;100.00
28310;BME280;15571;50.974;13.936;2023-07-31T03:30:56;99786.97;;;16.14;100.00
28310;BME280;15571;50.974;13.936;2023-07-31T03:34:00;99779.47;;;16.27;100.00
28310;BME280;15571;50.974;13.936;2023-07-31T03:37:02;99782.25;;;16.24;100.00
28310;BME280;15571;50.974;13.936;2023-07-31T03:40:05;99783.91;;;16.27;100.00
28310;BME280;15571;50.974;13.936;2023-07-31T03:43:09;99784.75;;;16.27;100.00
28310;BME280;15571;50.974;13.936;2023-07-31T03:46:14;99792.56;;;16.30;100.00
28310;BME280;15571;50.974;13.936;2023-07-31T03:49:16;99792.50;;;16.32;100.00
28310;BME280;15571;50.974;13.936;2023-07-31T03:52:18;99794.53;;;16.49;100.00
28310;BME280;15571;50.974;13.936;2023-07-31T03:55:20;99799.03;;;16.71;100.00
28310;BME280;15571;50.974;13.936;2023-07-31T03:58:29;99787.81;;;16.64;100.00
28310;BME280;15571;50.974;13.936;2023-07-31T04:01:31;99792.03;;;16.70;100.00
28310;BME280;15571;50.974;13.936;2023-07-31T04:04:35;99795.47;;;16.95;100.00
28310;BME280;15571;50.974;13.936;2023-07-31T04:07:37;99791.00;;;16.98;100.00
28310;BME280;15571;50.974;13.936;2023-07-31T04:10:39;99794.06;;;17.09;100.00
28310;BME280;15571;50.974;13.936;2023-07-31T04:13:42;99783.13;;;16.96;100.00
28310;BME280;15571;50.974;13.936;2023-07-31T04:16:50;99787.66;;;16.92;100.00
28310;BME280;15571;50.974;13.936;2023-07-31T04:19:52;99779.75;;;16.91;100.00
28310;BME280;15571;50.974;13.936;2023-07-31T04:22:54;99782.25;;;16.95;100.00
28310;BME280;15571;50.974;13.936;2023-07-31T04:25:56;99776.75;;;17.02;100.00
28310;BME280;15571;50.974;13.936;2023-07-31T04:28:59;99775.94;;;17.00;100.00
28310;BME280;15571;50.974;13.936;2023-07-31T04:32:03;99776.84;;;16.99;100.00
28310;BME280;15571;50.974;13.936;2023-07-31T04:35:06;99775.13;;;16.98;100.00
28310;BME280;15571;50.974;13.936;2023-07-31T04:38:10;99773.84;;;17.08;100.00
28310;BME280;15571;50.974;13.936;2023-07-31T04:41:12;99775.31;;;17.15;100.00
28310;BME280;15571;50.974;13.936;2023-07-31T04:44:15;99770.16;;;17.12;100.00
28310;BME280;15571;50.974;13.936;2023-07-31T04:47:17;99765.53;;;17.17;100.00
28310;BME280;15571;50.974;13.936;2023-07-31T04:50:24;99759.88;;;17.26;100.00
28310;BME280;15571;50.974;13.936;2023-07-31T04:53:25;99762.53;;;17.26;100.00
28310;BME280;15571;50.974;13.936;2023-07-31T04:56:28;99757.31;;;17.25;100.00
28310;BME280;15571;50.974;13.936;2023-07-31T04:59:31;99766.16;;;17.24;100.00
28310;BME280;15571;50.974;13.936;2023-07-31T05:02:33;99765.06;;;17.30;100.00
28310;BME280;15571;50.974;13.936;2023-07-31T05:05:35;99758.53;;;17.38;100.00
28310;BME280;15571;50.974;13.936;2023-07-31T05:08:37;99761.59;;;17.27;100.00
28310;BME280;15571;50.974;13.936;2023-07-31T05:11:39;99767.88;;;17.25;100.00
28310;BME280;15571;50.974;13.936;2023-07-31T05:14:44;99764.25;;;17.27;100.00
28310;BME280;15571;50.974;13.936;2023-07-31T05:17:46;99762.59;;;17.25;100.00
28310;BME280;15571;50.974;13.936;2023-07-31T05:20:48;99760.59;;;17.30;100.00
28310;BME280;15571;50.974;13.936;2023-07-31T05:23:53;99761.69;;;17.26;100.00
28310;BME280;15571;50.974;13.936;2023-07-31T05:26:55;99756.34;;;17.48;100.00
28310;BME280;15571;50.974;13.936;2023-07-31T05:29:59;99754.56;;;17.49;100.00
28310;BME280;15571;50.974;13.936;2023-07-31T05:33:00;99756.09;;;17.34;100.00
28310;BME280;15571;50.974;13.936;2023-07-31T05:36:02;99750.78;;;17.34;100.00
28310;BME280;15571;50.974;13.936;2023-07-31T05:39:04;99759.66;;;17.33;100.00
28310;BME280;15571;50.974;13.936;2023-07-31T05:42:08;99746.56;;;17.50;100.00
28310;BME280;15571;50.974;13.936;2023-07-31T05:45:12;99753.44;;;17.54;100.00
28310;BME280;15571;50.974;13.936;2023-07-31T05:48:14;99743.41;;;17.42;100.00
28310;BME280;15571;50.974;13.936;2023-07-31T05:51:16;99738.34;;;17.36;100.00
28310;BME280;15571;50.974;13.936;2023-07-31T05:54:18;99739.34;;;17.33;100.00
28310;BME280;15571;50.974;13.936;2023-07-31T05:57:19;99737.38;;;17.59;100.00
28310;BME280;15571;50.974;13.936;2023-07-31T06:00:26;99740.16;;;17.56;100.00
28310;BME280;15571;50.974;13.936;2023-07-31T06:03:29;99734.66;;;17.40;100.00
28310;BME280;15571;50.974;13.936;2023-07-31T06:06:34;99739.25;;;17.35;100.00
28310;BME280;15571;50.974;13.936;2023-07-31T06:09:36;99736.63;;;17.55;100.00
28310;BME280;15571;50.974;13.936;2023-07-31T06:12:38;99728.78;;;17.54;100.00
28310;BME280;15571;50.974;13.936;2023-07-31T06:15:41;99734.16;;;17.52;100.00
28310;BME280;15571;50.974;13.936;2023-07-31T06:18:43;99726.97;;;17.54;100.00
28310;BME280;15571;50.974;13.936;2023-07-31T06:21:48;99720.56;;;17.60;100.00
28310;BME280;15571;50.974;13.936;2023-07-31T06:24:50;99731.31;;;17.57;100.00
28310;BME280;15571;50.974;13.936;2023-07-31T06:27:52;99722.16;;;17.64;100.00
28310;BME280;15571;50.974;13.936;2023-07-31T06:30:57;99724.50;;;17.72;100.00
28310;BME280;15571;50.974;13.936;2023-07-31T06:33:59;99722.63;;;17.74;100.00
28310;BME280;15571;50.974;13.936;2023-07-31T06:37:00;99721.97;;;17.89;100.00
28310;BME280;15571;50.974;13.936;2023-07-31T06:40:02;99714.34;;;17.82;100.00
28310;BME280;15571;50.974;13.936;2023-07-31T06:43:06;99719.88;;;17.98;100.00
28310;BME280;15571;50.974;13.936;2023-07-31T06:46:10;99721.84;;;17.93;100.00
28310;BME280;15571;50.974;13.936;2023-07-31T06:49:12;99719.03;;;17.96;100.00
28310;BME280;15571;50.974;13.936;2023-07-31T06:52:15;99715.88;;;18.08;100.00
28310;BME280;15571;50.974;13.936;2023-07-31T06:55:20;99707.47;;;17.98;100.00
28310;BME280;15571;50.974;13.936;2023-07-31T06:58:22;99717.72;;;18.06;100.00
28310;BME280;15571;50.974;13.936;2023-07-31T07:01:26;99719.03;;;18.16;100.00
28310;BME280;15571;50.974;13.936;2023-07-31T07:04:28;99722.38;;;18.22;100.00
28310;BME280;15571;50.974;13.936;2023-07-31T07:07:33;99720.63;;;18.20;100.00
28310;BME280;15571;50.974;13.936;2023-07-31T07:10:35;99709.75;;;18.27;100.00
28310;BME280;15571;50.974;13.936;2023-07-31T07:13:38;99719.13;;;18.34;100.00
28310;BME280;15571;50.974;13.936;2023-07-31T07:16:42;99714.34;;;18.42;100.00
28310;BME280;15571;50.974;13.936;2023-07-31T07:19:45;99708.78;;;18.48;100.00
28310;BME280;15571;50.974;13.936;2023-07-31T07:22:50;99713.19;;;18.67;100.00
28310;BME280;15571;50.974;13.936;2023-07-31T07:25:54;99709.03;;;18.80;100.00
28310;BME280;15571;50.974;13.936;2023-07-31T07:28:56;99706.59;;;18.95;100.00
28310;BME280;15571;50.974;13.936;2023-07-31T07:32:00;99698.84;;;19.09;100.00
28310;BME280;15571;50.974;13.936;2023-07-31T07:35:05;99703.38;;;19.25;100.00
28310;BME280;15571;50.974;13.936;2023-07-31T07:38:07;99692.44;;;19.31;100.00
28310;BME280;15571;50.974;13.936;2023-07-31T07:41:12;99692.53;;;19.47;100.00
28310;BME280;15571;50.974;13.936;2023-07-31T07:44:14;99694.41;;;19.63;100.00
28310;BME280;15571;50.974;13.936;2023-07-31T07:47:20;99694.47;;;19.61;100.00
28310;BME280;15571;50.974;13.936;2023-07-31T07:50:22;99693.84;;;19.73;100.00
28310;BME280;15571;50.974;13.936;2023-07-31T07:53:24;99694.16;;;19.85;100.00
28310;BME280;15571;50.974;13.936;2023-07-31T07:56:26;99686.41;;;19.80;100.00
28310;BME280;15571;50.974;13.936;2023-07-31T07:59:30;99690.50;;;19.70;100.00
28310;BME280;15571;50.974;13.936;2023-07-31T08:02:33;99691.81;;;19.79;100.00
28310;BME280;15571;50.974;13.936;2023-07-31T08:05:35;99705.97;;;19.62;100.00
28310;BME280;15571;50.974;13.936;2023-07-31T08:08:37;99702.63;;;19.58;100.00
28310;BME280;15571;50.974;13.936;2023-07-31T08:11:45;99710.59;;;19.58;100.00
28310;BME280;15571;50.974;13.936;2023-07-31T08:14:48;99700.19;;;19.71;100.00
28310;BME280;15571;50.974;13.936;2023-07-31T08:17:54;99700.88;;;19.74;100.00
28310;BME280;15571;50.974;13.936;2023-07-31T08:20:56;99699.25;;;19.89;100.00
28310;BME280;15571;50.974;13.936;2023-07-31T08:23:58;99685.94;;;20.23;100.00
28310;BME280;15571;50.974;13.936;2023-07-31T08:27:06;99697.47;;;20.40;100.00
28310;BME280;15571;50.974;13.936;2023-07-31T08:30:08;99694.97;;;20.68;100.00
28310;BME280;15571;50.974;13.936;2023-07-31T08:33:12;99690.47;;;20.87;100.00
28310;BME280;15571;50.974;13.936;2023-07-31T08:36:14;99698.03;;;20.94;100.00
28310;BME280;15571;50.974;13.936;2023-07-31T08:39:21;99696.63;;;21.03;100.00
28310;BME280;15571;50.974;13.936;2023-07-31T08:42:23;99691.81;;;21.10;100.00
28310;BME280;15571;50.974;13.936;2023-07-31T08:45:25;99693.34;;;21.14;100.00
28310;BME280;15571;50.974;13.936;2023-07-31T08:48:29;99704.84;;;21.14;100.00
28310;BME280;15571;50.974;13.936;2023-07-31T08:51:33;99694.53;;;21.24;100.00
28310;BME280;15571;50.974;13.936;2023-07-31T08:54:35;99701.50;;;21.11;100.00
28310;BME280;15571;50.974;13.936;2023-07-31T08:57:40;99699.53;;;20.98;100.00
28310;BME280;15571;50.974;13.936;2023-07-31T09:00:43;99698.34;;;20.88;100.00
28310;BME280;15571;50.974;13.936;2023-07-31T09:03:50;99699.22;;;21.05;100.00
28310;BME280;15571;50.974;13.936;2023-07-31T09:06:55;99695.59;;;21.06;100.00
28310;BME280;15571;50.974;13.936;2023-07-31T09:10:01;99697.66;;;21.01;100.00
28310;BME280;15571;50.974;13.936;2023-07-31T09:13:08;99695.09;;;20.83;100.00
28310;BME280;15571;50.974;13.936;2023-07-31T09:16:13;99706.69;;;20.82;100.00
28310;BME280;15571;50.974;13.936;2023-07-31T09:19:25;99690.97;;;20.93;100.00
28310;BME280;15571;50.974;13.936;2023-07-31T09:22:31;99704.72;;;20.86;100.00
28310;BME280;15571;50.974;13.936;2023-07-31T09:25:33;99705.13;;;20.78;100.00
28310;BME280;15571;50.974;13.936;2023-07-31T09:28:35;99699.56;;;20.82;100.00
28310;BME280;15571;50.974;13.936;2023-07-31T09:31:41;99693.81;;;20.90;100.00
28310;BME280;15571;50.974;13.936;2023-07-31T09:34:44;99691.66;;;20.97;100.00
28310;BME280;15571;50.974;13.936;2023-07-31T09:37:56;99693.03;;;20.88;100.00
28310;BME280;15571;50.974;13.936;2023-07-31T09:41:00;99678.78;;;20.89;100.00
28310;BME280;15571;50.974;13.936;2023-07-31T09:44:03;99681.69;;;21.01;100.00
28310;BME280;15571;50.974;13.936;2023-07-31T09:47:06;99665.41;;;20.91;100.00
28310;BME280;15571;50.974;13.936;2023-07-31T09:50:10;99665.56;;;21.04;100.00
28310;BME280;15571;50.974;13.936;2023-07-31T09:53:12;99673.16;;;21.10;100.00
28310;BME280;15571;50.974;13.936;2023-07-31T09:56:17;99669.75;;;21.08;100.00
28310;BME280;15571;50.974;13.936;2023-07-31T09:59:22;99667.81;;;20.95;100.00
28310;BME280;15571;50.974;13.936;2023-07-31T10:02:24;99663.56;;;21.07;100.00
28310;BME280;15571;50.974;13.936;2023-07-31T10:05:33;99674.31;;;21.06;100.00
28310;BME280;15571;50.974;13.936;2023-07-31T10:08:36;99658.53;;;21.03;100.00
28310;BME280;15571;50.974;13.936;2023-07-31T10:11:41;99660.66;;;21.12;100.00
28310;BME280;15571;50.974;13.936;2023-07-31T10:14:44;99658.47;;;21.19;100.00
28310;BME280;15571;50.974;13.936;2023-07-31T10:17:47;99659.09;;;21.38;100.00
28310;BME280;15571;50.974;13.936;2023-07-31T10:20:50;99654.44;;;21.42;100.00
28310;BME280;15571;50.974;13.936;2023-07-31T10:23:53;99656.56;;;21.51;100.00
28310;BME280;15571;50.974;13.936;2023-07-31T10:26:55;99646.69;;;21.53;100.00
28310;BME280;15571;50.974;13.936;2023-07-31T10:30:08;99649.13;;;21.56;100.00
28310;BME280;15571;50.974;13.936;2023-07-31T10:33:10;99644.97;;;21.52;100.00
28310;BME280;15571;50.974;13.936;2023-07-31T10:36:14;99640.59;;;21.51;100.00
28310;BME280;15571;50.974;13.936;2023-07-31T10:39:35;99624.50;;;21.53;100.00
28310;BME280;15571;50.974;13.936;2023-07-31T10:42:45;99624.22;;;21.57;100.00
28310;BME280;15571;50.974;13.936;2023-07-31T10:45:50;99623.97;;;21.62;100.00
28310;BME280;15571;50.974;13.936;2023-07-31T10:48:57;99617.06;;;21.74;100.00
28310;BME280;15571;50.974;13.936;2023-07-31T10:52:04;99619.78;;;21.72;100.00
28310;BME280;15571;50.974;13.936;2023-07-31T10:55:15;99612.00;;;21.84;100.00
28310;BME280;15571;50.974;13.936;2023-07-31T10:58:18;99615.34;;;22.02;100.00
28310;BME280;15571;50.974;13.936;2023-07-31T11:01:23;99604.75;;;22.00;100.00
28310;BME280;15571;50.974;13.936;2023-07-31T11:04:25;99611.91;;;22.00;100.00
28310;BME280;15571;50.974;13.936;2023-07-31T11:07:32;99598.53;;;22.14;100.00
28310;BME280;15571;50.974;13.936;2023-07-31T11:10:51;99595.50;;;22.20;100.00
28310;BME280;15571;50.974;13.936;2023-07-31T11:14:11;99590.06;;;22.22;100.00
28310;BME280;15571;50.974;13.936;2023-07-31T11:17:13;99596.63;;;22.31;100.00
28310;BME280;15571;50.974;13.936;2023-07-31T11:20:15;99590.44;;;22.45;100.00
28310;BME280;15571;50.974;13.936;2023-07-31T11:23:18;99594.28;;;22.53;100.00
28310;BME280;15571;50.974;13.936;2023-07-31T11:26:20;99587.03;;;22.56;100.00
28310;BME280;15571;50.974;13.936;2023-07-31T11:29:27;99591.06;;;22.48;100.00
28310;BME280;15571;50.974;13.936;2023-07-31T11:32:29;99582.78;;;22.53;100.00
28310;BME280;15571;50.974;13.936;2023-07-31T11:35:41;99585.94;;;22.45;100.00
28310;BME280;15571;50.974;13.936;2023-07-31T11:38:46;99587.66;;;22.46;100.00
28310;BME280;15571;50.974;13.936;2023-07-31T11:41:51;99593.44;;;22.53;100.00
28310;BME280;15571;50.974;13.936;2023-07-31T11:44:53;99591.28;;;22.45;100.00
28310;BME280;15571;50.974;13.936;2023-07-31T11:47:57;99595.75;;;22.30;100.00
28310;BME280;15571;50.974;13.936;2023-07-31T11:51:01;99586.31;;;22.39;100.00
28310;BME280;15571;50.974;13.936;2023-07-31T11:54:07;99581.50;;;22.59;100.00
28310;BME280;15571;50.974;13.936;2023-07-31T11:57:14;99577.25;;;22.56;100.00
28310;BME280;15571;50.974;13.936;2023-07-31T12:00:17;99573.22;;;22.63;100.00
28310;BME280;15571;50.974;13.936;2023-07-31T12:03:19;99569.63;;;22.77;100.00
28310;BME280;15571;50.974;13.936;2023-07-31T12:06:21;99557.50;;;22.99;100.00
28310;BME280;15571;50.974;13.936;2023-07-31T12:09:24;99551.53;;;22.95;100.00
28310;BME280;15571;50.974;13.936;2023-07-31T12:12:29;99552.81;;;23.03;100.00
28310;BME280;15571;50.974;13.936;2023-07-31T12:15:32;99554.00;;;23.11;100.00
28310;BME280;15571;50.974;13.936;2023-07-31T12:18:38;99544.94;;;23.14;100.00
28310;BME280;15571;50.974;13.936;2023-07-31T12:21:40;99531.03;;;23.09;100.00
28310;BME280;15571;50.974;13.936;2023-07-31T12:24:44;99531.34;;;23.04;100.00
28310;BME280;15571;50.974;13.936;2023-07-31T12:27:45;99531.22;;;22.93;100.00
28310;BME280;15571;50.974;13.936;2023-07-31T12:30:47;99532.06;;;22.80;100.00
28310;BME280;15571;50.974;13.936;2023-07-31T12:33:50;99526.59;;;22.69;100.00
28310;BME280;15571;50.974;13.936;2023-07-31T12:36:53;99526.03;;;22.64;100.00
28310;BME280;15571;50.974;13.936;2023-07-31T12:39:56;99522.38;;;22.52;100.00
28310;BME280;15571;50.974;13.936;2023-07-31T12:43:03;99523.16;;;22.54;100.00
28310;BME280;15571;50.974;13.936;2023-07-31T12:46:05;99508.59;;;22.85;100.00
28310;BME280;15571;50.974;13.936;2023-07-31T12:49:10;99507.13;;;22.94;100.00
28310;BME280;15571;50.974;13.936;2023-07-31T12:52:12;99510.63;;;22.95;100.00
28310;BME280;15571;50.974;13.936;2023-07-31T12:55:15;99502.41;;;22.98;100.00
28310;BME280;15571;50.974;13.936;2023-07-31T12:58:19;99491.13;;;23.20;100.00
28310;BME280;15571;50.974;13.936;2023-07-31T13:01:22;99493.78;;;23.33;100.00
28310;BME280;15571;50.974;13.936;2023-07-31T13:04:27;99463.25;;;23.37;100.00
28310;BME280;15571;50.974;13.936;2023-07-31T13:07:29;99459.91;;;23.46;100.00
28310;BME280;15571;50.974;13.936;2023-07-31T13:10:34;99452.41;;;23.52;100.00
28310;BME280;15571;50.974;13.936;2023-07-31T13:13:36;99450.06;;;23.60;100.00
28310;BME280;15571;50.974;13.936;2023-07-31T13:16:38;99446.25;;;23.75;100.00
28310;BME280;15571;50.974;13.936;2023-07-31T13:19:40;99442.25;;;23.94;100.00
28310;BME280;15571;50.974;13.936;2023-07-31T13:22:41;99437.94;;;24.04;100.00
28310;BME280;15571;50.974;13.936;2023-07-31T13:25:47;99443.06;;;24.07;100.00
28310;BME280;15571;50.974;13.936;2023-07-31T13:28:49;99434.78;;;23.99;100.00
28310;BME280;15571;50.974;13.936;2023-07-31T13:31:52;99439.41;;;23.84;100.00
28310;BME280;15571;50.974;13.936;2023-07-31T13:35:01;99438.53;;;23.84;100.00
28310;BME280;15571;50.974;13.936;2023-07-31T13:38:03;99432.44;;;23.82;100.00
28310;BME280;15571;50.974;13.936;2023-07-31T13:41:07;99423.72;;;23.67;100.00
28310;BME280;15571;50.974;13.936;2023-07-31T13:44:09;99422.56;;;23.71;100.00
28310;BME280;15571;50.974;13.936;2023-07-31T13:47:11;99426.75;;;23.62;100.00
28310;BME280;15571;50.974;13.936;2023-07-31T13:50:15;99421.53;;;23.85;100.00
28310;BME280;15571;50.974;13.936;2023-07-31T13:53:24;99428.81;;;23.83;100.00
28310;BME280;15571;50.974;13.936;2023-07-31T13:56:31;99409.72;;;24.00;100.00
28310;BME280;15571;50.974;13.936;2023-07-31T13:59:35;99404.94;;;24.17;100.00
28310;BME280;15571;50.974;13.936;2023-07-31T14:02:38;99397.81;;;24.29;100.00
28310;BME280;15571;50.974;13.936;2023-07-31T14:05:40;99392.63;;;24.38;100.00
28310;BME280;15571;50.974;13.936;2023-07-31T14:08:42;99388.28;;;24.49;100.00
28310;BME280;15571;50.974;13.936;2023-07-31T14:11:45;99382.69;;;24.63;100.00
28310;BME280;15571;50.974;13.936;2023-07-31T14:14:48;99384.69;;;24.73;100.00
28310;BME280;15571;50.974;13.936;2023-07-31T14:17:50;99380.09;;;24.97;100.00
28310;BME280;15571;50.974;13.936;2023-07-31T14:20:52;99375.72;;;24.96;100.00
28310;BME280;15571;50.974;13.936;2023-07-31T14:23:56;99384.94;;;24.81;100.00
28310;BME280;15571;50.974;13.936;2023-07-31T14:27:03;99380.50;;;24.57;100.00
28310;BME280;15571;50.974;13.936;2023-07-31T14:30:05;99389.59;;;24.43;100.00
28310;BME280;15571;50.974;13.936;2023-07-31T14:33:08;99389.66;;;24.30;100.00
28310;BME280;15571;50.974;13.936;2023-07-31T14:36:15;99390.91;;;24.37;100.00
28310;BME280;15571;50.974;13.936;2023-07-31T14:39:17;99388.97;;;24.39;100.00
28310;BME280;15571;50.974;13.936;2023-07-31T14:42:20;99386.75;;;24.33;100.00
28310;BME280;15571;50.974;13.936;2023-07-31T14:45:22;99374.56;;;24.18;100.00
28310;BME280;15571;50.974;13.936;2023-07-31T14:48:24;99374.00;;;24.01;100.00
28310;BME280;15571;50.974;13.936;2023-07-31T14:51:26;99361.22;;;23.93;100.00
28310;BME280;15571;50.974;13.936;2023-07-31T14:54:28;99359.38;;;23.94;100.00
28310;BME280;15571;50.974;13.936;2023-07-31T14:57:38;99352.88;;;23.98;100.00
28310;BME280;15571;50.974;13.936;2023-07-31T15:00:40;99355.97;;;24.16;100.00
28310;BME280;15571;50.974;13.936;2023-07-31T15:03:45;99349.31;;;24.33;100.00
28310;BME280;15571;50.974;13.936;2023-07-31T15:06:47;99342.16;;;24.45;100.00
28310;BME280;15571;50.974;13.936;2023-07-31T15:09:49;99343.63;;;24.38;100.00
28310;BME280;15571;50.974;13.936;2023-07-31T15:12:52;99341.47;;;24.43;100.00
28310;BME280;15571;50.974;13.936;2023-07-31T15:15:54;99345.88;;;24.20;100.00
28310;BME280;15571;50.974;13.936;2023-07-31T15:18:59;99346.22;;;24.04;100.00
28310;BME280;15571;50.974;13.936;2023-07-31T15:22:01;99346.50;;;23.88;100.00
28310;BME280;15571;50.974;13.936;2023-07-31T15:25:04;99347.53;;;23.74;100.00
28310;BME280;15571;50.974;13.936;2023-07-31T15:28:11;99359.00;;;23.63;100.00
28310;BME280;15571;50.974;13.936;2023-07-31T15:31:13;99357.47;;;23.47;100.00
28310;BME280;15571;50.974;13.936;2023-07-31T15:34:18;99356.25;;;23.52;100.00
28310;BME280;15571;50.974;13.936;2023-07-31T15:37:22;99355.81;;;23.34;100.00
28310;BME280;15571;50.974;13.936;2023-07-31T15:40:23;99346.09;;;23.33;100.00
28310;BME280;15571;50.974;13.936;2023-07-31T15:43:27;99343.50;;;23.18;100.00
28310;BME280;15571;50.974;13.936;2023-07-31T15:46:30;99355.44;;;23.01;100.00
28310;BME280;15571;50.974;13.936;2023-07-31T15:49:31;99348.47;;;22.98;100.00